Time;durP1;ratioP1;P1;durP2;ratioP2;P2;SDS_P1;SDS_P2;PMS_P1;PMS_P2;Temp;Humidity;BMP_temperature;BMP_pressure;BME280_temperature;BME280_humidity;BME280_pressure;Samples;Min_cycle;Max_cycle;Signal;HPM_P1;HPM_P2
2023/04/15 00:00:09;;;;;;;12.88;6.40;;;5.70;99.90;;;;;;5036930;28;20095;-89
2023/04/15 00:02:36;;;;;;;10.48;6.25;;;5.60;99.90;;;;;;5024901;28;20076;-89
2023/04/15 00:05:02;;;;;;;12.75;7.40;;;5.60;99.90;;;;;;5025444;28;20041;-88
2023/04/15 00:07:28;;;;;;;13.02;6.95;;;5.60;99.90;;;;;;5041356;28;20155;-88
2023/04/15 00:09:56;;;;;;;10.93;6.10;;;5.60;99.90;;;;;;5039135;28;20087;-88
2023/04/15 00:12:26;;;;;;;10.30;6.22;;;5.60;99.90;;;;;;5023837;28;20522;-87
2023/04/15 00:14:52;;;;;;;12.05;6.82;;;5.60;99.90;;;;;;5039990;28;20500;-88
2023/04/15 00:17:17;;;;;;;10.88;6.28;;;5.60;99.90;;;;;;5024310;28;20157;-88
2023/04/15 00:19:46;;;;;;;12.07;6.38;;;5.50;99.90;;;;;;5039730;28;20102;-87
2023/04/15 00:22:16;;;;;;;11.70;7.05;;;5.50;99.90;;;;;;5026242;28;20033;-88
2023/04/15 00:24:42;;;;;;;14.55;6.68;;;5.50;99.90;;;;;;5024103;28;20045;-89
2023/04/15 00:27:08;;;;;;;11.52;6.97;;;5.50;99.90;;;;;;5027775;28;20514;-88
2023/04/15 00:29:34;;;;;;;16.23;7.13;;;5.50;99.90;;;;;;5023229;28;20044;-88
2023/04/15 00:32:00;;;;;;;10.82;6.78;;;5.50;99.90;;;;;;5024844;28;20131;-87
2023/04/15 00:34:26;;;;;;;14.27;7.63;;;5.50;99.90;;;;;;5041654;28;20055;-89
2023/04/15 00:36:53;;;;;;;12.02;7.57;;;5.50;99.90;;;;;;5041896;28;20048;-88
2023/04/15 00:39:19;;;;;;;12.10;7.70;;;5.50;99.90;;;;;;5039444;28;20175;-88
2023/04/15 00:41:45;;;;;;;15.27;7.57;;;5.50;99.90;;;;;;5027708;28;20739;-88
2023/04/15 00:44:11;;;;;;;11.43;7.80;;;5.50;99.90;;;;;;5058834;28;20123;-89
2023/04/15 00:46:38;;;;;;;15.43;7.97;;;5.50;99.90;;;;;;5057449;28;20170;-88
2023/04/15 00:49:05;;;;;;;14.23;8.60;;;5.60;99.90;;;;;;5053077;28;20041;-88
2023/04/15 00:51:32;;;;;;;14.23;8.82;;;5.60;99.90;;;;;;5039224;28;20055;-88
2023/04/15 00:53:59;;;;;;;13.23;7.72;;;5.60;99.90;;;;;;5049073;28;20083;-89
2023/04/15 00:56:26;;;;;;;10.50;7.75;;;5.60;99.90;;;;;;5022919;28;20151;-88
2023/04/15 00:58:52;;;;;;;15.05;8.65;;;5.60;99.90;;;;;;5025230;28;20583;-88
2023/04/15 01:01:21;;;;;;;14.60;7.82;;;5.60;99.90;;;;;;5023669;28;20045;-88
2023/04/15 01:03:50;;;;;;;16.83;8.13;;;5.60;99.90;;;;;;5023111;28;20103;-86
2023/04/15 01:06:17;;;;;;;13.13;8.32;;;5.60;99.90;;;;;;5057204;28;20033;-87
2023/04/15 01:08:44;;;;;;;15.25;8.10;;;5.60;99.90;;;;;;5021410;28;20526;-87
2023/04/15 01:11:11;;;;;;;16.40;9.70;;;5.60;99.90;;;;;;5041620;28;20722;-88
2023/04/15 01:13:37;;;;;;;12.95;8.20;;;5.60;99.90;;;;;;5040989;28;20048;-87
2023/04/15 01:16:03;;;;;;;15.63;8.30;;;5.50;99.90;;;;;;5040099;28;20503;-88
2023/04/15 01:18:30;;;;;;;15.63;8.80;;;5.50;99.90;;;;;;5038841;28;20056;-87
2023/04/15 01:20:56;;;;;;;13.35;8.10;;;5.50;99.90;;;;;;5023761;28;20036;-88
2023/04/15 01:23:22;;;;;;;13.40;9.10;;;5.50;99.90;;;;;;5023590;28;20039;-87
2023/04/15 01:25:48;;;;;;;13.38;7.97;;;5.50;99.90;;;;;;5039097;28;20052;-88
2023/04/15 01:28:14;;;;;;;12.93;8.57;;;5.40;99.90;;;;;;5040606;28;20028;-88
2023/04/15 01:30:40;;;;;;;13.82;9.35;;;5.40;99.90;;;;;;5040761;28;20102;-88
2023/04/15 01:33:06;;;;;;;16.80;9.10;;;5.40;99.90;;;;;;5060236;28;20045;-88
2023/04/15 01:35:32;;;;;;;13.15;8.25;;;5.40;99.90;;;;;;5040887;28;20040;-87
2023/04/15 01:38:08;;;;;;;14.20;9.23;;;5.40;99.90;;;;;;5055865;28;20068;-87
2023/04/15 01:40:34;;;;;;;12.48;8.45;;;5.30;99.90;;;;;;5043081;28;20132;-87
2023/04/15 01:43:04;;;;;;;13.15;9.02;;;5.30;99.90;;;;;;5040335;28;20152;-85
2023/04/15 01:45:29;;;;;;;16.45;9.70;;;5.30;99.90;;;;;;5054044;28;20044;-87
2023/04/15 01:47:55;;;;;;;14.27;8.73;;;5.20;99.90;;;;;;5023275;28;20394;-87
2023/04/15 01:50:21;;;;;;;16.25;8.95;;;5.20;99.90;;;;;;5040548;28;20999;-89
2023/04/15 01:52:47;;;;;;;14.55;8.98;;;5.20;99.90;;;;;;5024539;28;20040;-88
2023/04/15 01:55:13;;;;;;;14.85;9.23;;;5.10;99.90;;;;;;5022670;28;20471;-87
2023/04/15 01:57:39;;;;;;;14.88;9.25;;;5.20;99.90;;;;;;5025153;28;20037;-88
2023/04/15 02:00:08;;;;;;;17.42;9.88;;;5.10;99.90;;;;;;5021461;28;20037;-88
2023/04/15 02:02:34;;;;;;;12.27;8.63;;;5.10;99.90;;;;;;5037754;28;20124;-87
2023/04/15 02:05:00;;;;;;;14.15;8.85;;;5.10;99.90;;;;;;5029529;28;20382;-88
2023/04/15 02:07:27;;;;;;;16.33;9.90;;;5.00;99.90;;;;;;5028327;28;20128;-87
2023/04/15 02:09:53;;;;;;;16.40;9.70;;;4.90;99.90;;;;;;5025181;28;20052;-88
2023/04/15 02:12:22;;;;;;;14.30;9.32;;;4.90;99.90;;;;;;5043277;28;20515;-88
2023/04/15 02:14:47;;;;;;;14.02;9.35;;;4.90;99.90;;;;;;5039965;28;20348;-88
2023/04/15 02:17:13;;;;;;;16.75;10.38;;;4.90;99.90;;;;;;5044573;28;20609;-88
2023/04/15 02:19:40;;;;;;;15.60;9.77;;;4.80;99.90;;;;;;5059981;28;20048;-88
2023/04/15 02:22:07;;;;;;;15.18;9.52;;;4.80;99.90;;;;;;5027711;28;20048;-87
2023/04/15 02:24:34;;;;;;;14.68;9.35;;;4.80;99.90;;;;;;5042134;28;20041;-88
2023/04/15 02:27:00;;;;;;;16.90;9.95;;;4.70;99.90;;;;;;5028576;28;20064;-87
2023/04/15 02:29:31;;;;;;;17.55;10.73;;;4.60;99.90;;;;;;5053411;28;20247;-88
2023/04/15 02:31:57;;;;;;;16.23;9.88;;;4.60;99.90;;;;;;5028634;28;20044;-88
2023/04/15 02:34:22;;;;;;;21.27;11.23;;;4.60;99.90;;;;;;5026689;28;20492;-88
2023/04/15 02:36:48;;;;;;;16.08;9.68;;;4.60;99.90;;;;;;5027239;28;20486;-88
2023/04/15 02:39:15;;;;;;;16.42;10.52;;;4.50;99.90;;;;;;5025808;28;20450;-88
2023/04/15 02:41:42;;;;;;;15.52;10.30;;;4.50;99.90;;;;;;5029014;28;20083;-87
2023/04/15 02:44:08;;;;;;;17.08;11.38;;;4.50;99.90;;;;;;5027009;28;20140;-88
2023/04/15 02:46:34;;;;;;;18.45;11.75;;;4.50;99.90;;;;;;5043859;28;20037;-88
2023/04/15 02:49:01;;;;;;;17.33;11.13;;;4.60;99.90;;;;;;5026616;28;20037;-88
2023/04/15 02:51:30;;;;;;;16.33;10.63;;;4.50;99.90;;;;;;5027923;28;20055;-86
2023/04/15 02:53:57;;;;;;;18.63;11.60;;;4.50;99.90;;;;;;5052570;28;20495;-86
2023/04/15 02:56:22;;;;;;;18.45;11.18;;;4.60;99.90;;;;;;5043252;28;20559;-87
2023/04/15 02:58:49;;;;;;;19.30;11.55;;;4.60;99.90;;;;;;5025193;28;20041;-88
2023/04/15 03:01:15;;;;;;;18.58;11.57;;;4.60;99.90;;;;;;5023872;28;20496;-87
2023/04/15 03:03:41;;;;;;;17.90;11.57;;;4.50;99.90;;;;;;5039177;28;20048;-87
2023/04/15 03:06:07;;;;;;;17.33;11.10;;;4.50;99.90;;;;;;5041526;28;20037;-88
2023/04/15 03:08:33;;;;;;;17.58;11.32;;;4.50;99.90;;;;;;5029632;28;20109;-88
2023/04/15 03:10:59;;;;;;;17.02;11.57;;;4.50;99.90;;;;;;5057826;28;20116;-87
2023/04/15 03:13:28;;;;;;;18.75;12.13;;;4.50;99.90;;;;;;5042188;28;20482;-87
2023/04/15 03:15:54;;;;;;;18.92;11.57;;;4.40;99.90;;;;;;5040099;28;20495;-88
2023/04/15 03:18:20;;;;;;;16.80;11.43;;;4.40;99.90;;;;;;5043336;28;20065;-87
2023/04/15 03:20:46;;;;;;;16.30;11.63;;;4.50;99.90;;;;;;5027129;28;20036;-88
2023/04/15 03:23:11;;;;;;;19.25;11.18;;;4.40;99.90;;;;;;5043394;28;20041;-88
2023/04/15 03:25:37;;;;;;;21.58;12.75;;;4.40;99.90;;;;;;5027633;28;20037;-88
2023/04/15 03:28:03;;;;;;;19.00;13.10;;;4.50;99.90;;;;;;5027516;28;20029;-87
2023/04/15 03:30:32;;;;;;;23.15;13.50;;;4.50;99.90;;;;;;5028204;28;20607;-88
2023/04/15 03:33:00;;;;;;;19.52;12.25;;;4.50;99.90;;;;;;5026236;28;20075;-87
2023/04/15 03:35:25;;;;;;;23.95;14.02;;;4.50;99.90;;;;;;5043449;28;20101;-88
2023/04/15 03:37:51;;;;;;;22.70;13.38;;;4.40;99.90;;;;;;5025761;28;20109;-88
2023/04/15 03:40:17;;;;;;;22.45;14.10;;;4.40;99.90;;;;;;5043230;28;20404;-87
2023/04/15 03:42:42;;;;;;;21.90;13.98;;;4.30;99.90;;;;;;5041125;28;20061;-87
2023/04/15 03:45:11;;;;;;;24.58;13.50;;;4.30;99.90;;;;;;5040402;28;20036;-86
2023/04/15 03:47:37;;;;;;;20.90;12.70;;;4.30;99.90;;;;;;5025296;28;20037;-88
2023/04/15 03:50:03;;;;;;;23.77;14.15;;;4.30;99.90;;;;;;5057227;28;20472;-87
2023/04/15 03:52:28;;;;;;;25.15;14.07;;;4.30;99.90;;;;;;5023080;28;20041;-88
2023/04/15 03:54:54;;;;;;;23.67;14.65;;;4.30;99.90;;;;;;5027224;28;20296;-87
2023/04/15 03:57:20;;;;;;;27.70;15.52;;;4.20;99.90;;;;;;5026830;28;20507;-88
2023/04/15 03:59:46;;;;;;;26.42;15.75;;;4.30;99.90;;;;;;5040994;28;20129;-87
2023/04/15 04:02:11;;;;;;;26.92;15.93;;;4.40;99.90;;;;;;5055025;28;20150;-88
2023/04/15 04:04:37;;;;;;;26.58;15.80;;;4.40;99.90;;;;;;5056584;28;20090;-87
2023/04/15 04:07:03;;;;;;;28.02;16.63;;;4.40;99.90;;;;;;5024331;28;20476;-88
2023/04/15 04:09:29;;;;;;;27.63;16.50;;;4.50;99.90;;;;;;5040881;28;20399;-88
2023/04/15 04:11:55;;;;;;;29.75;17.27;;;4.40;99.90;;;;;;5038335;28;20088;-88
2023/04/15 04:14:25;;;;;;;30.95;17.25;;;4.40;99.90;;;;;;5037482;28;20048;-87
2023/04/15 04:16:51;;;;;;;29.55;16.85;;;4.40;99.90;;;;;;5039215;28;20060;-88
2023/04/15 04:19:19;;;;;;;31.77;16.73;;;4.40;99.90;;;;;;5024890;28;20041;-88
2023/04/15 04:21:45;;;;;;;34.72;18.48;;;4.30;99.90;;;;;;5039668;28;20136;-87
2023/04/15 04:24:11;;;;;;;29.70;18.08;;;4.30;99.90;;;;;;5023896;28;20520;-87
2023/04/15 04:26:37;;;;;;;33.00;17.48;;;4.30;99.90;;;;;;5022481;28;20037;-88
2023/04/15 04:29:02;;;;;;;29.77;16.98;;;4.40;99.90;;;;;;5033477;28;20598;-87
2023/04/15 04:31:28;;;;;;;36.38;18.05;;;4.20;99.90;;;;;;5040795;28;20040;-88
2023/04/15 04:33:54;;;;;;;31.00;17.23;;;4.30;99.90;;;;;;5042515;28;20084;-87
2023/04/15 04:36:19;;;;;;;33.78;17.80;;;4.20;99.90;;;;;;5027861;28;20063;-88
2023/04/15 04:38:48;;;;;;;30.60;17.85;;;4.10;99.90;;;;;;5038009;28;20512;-87
2023/04/15 04:41:14;;;;;;;36.35;18.92;;;4.30;99.90;;;;;;5039006;28;20042;-88
2023/04/15 04:43:40;;;;;;;32.72;17.98;;;4.20;99.90;;;;;;5026147;28;20043;-87
2023/04/15 04:46:05;;;;;;;39.60;19.13;;;4.20;99.90;;;;;;5038384;28;20094;-87
2023/04/15 04:48:31;;;;;;;33.92;18.65;;;4.30;99.90;;;;;;5056058;28;20028;-87
2023/04/15 04:50:57;;;;;;;35.95;18.70;;;4.40;99.90;;;;;;5035409;28;20029;-87
2023/04/15 04:53:22;;;;;;;35.85;18.85;;;4.40;99.90;;;;;;5026153;28;20064;-88
2023/04/15 04:55:48;;;;;;;40.65;21.02;;;4.40;99.90;;;;;;5051065;28;20480;-87
2023/04/15 04:58:14;;;;;;;34.45;18.95;;;4.40;99.90;;;;;;5024560;28;20041;-87
2023/04/15 05:00:40;;;;;;;42.83;20.50;;;4.40;99.90;;;;;;5056903;28;20059;-88
2023/04/15 05:03:05;;;;;;;35.50;19.38;;;4.60;99.90;;;;;;5024446;28;20041;-88
2023/04/15 05:05:31;;;;;;;34.50;18.83;;;4.50;99.90;;;;;;5024618;28;20036;-88
2023/04/15 05:07:56;;;;;;;37.40;20.10;;;4.50;99.90;;;;;;5052516;28;20120;-87
2023/04/15 05:10:22;;;;;;;33.45;18.67;;;4.60;99.90;;;;;;5057378;28;20832;-87
2023/04/15 05:12:48;;;;;;;32.53;18.70;;;4.30;99.90;;;;;;5054453;28;20135;-87
2023/04/15 05:15:14;;;;;;;40.17;18.55;;;4.30;99.90;;;;;;5040522;28;20393;-88
2023/04/15 05:17:39;;;;;;;37.13;19.65;;;4.40;99.90;;;;;;5040869;28;20144;-88
2023/04/15 05:20:09;;;;;;;34.50;18.58;;;4.40;99.90;;;;;;5041795;28;20441;-88
2023/04/15 05:22:35;;;;;;;35.25;19.15;;;4.40;99.90;;;;;;5038169;28;20479;-88
2023/04/15 05:25:01;;;;;;;37.92;19.25;;;4.60;99.90;;;;;;5028089;28;20068;-88
2023/04/15 05:27:26;;;;;;;34.85;18.92;;;4.60;99.90;;;;;;5042610;28;20037;-88
2023/04/15 05:29:52;;;;;;;33.25;17.85;;;4.70;99.90;;;;;;5040666;28;20455;-88
2023/04/15 05:32:18;;;;;;;34.10;19.58;;;4.70;99.90;;;;;;5024538;28;20484;-88
2023/04/15 05:34:43;;;;;;;32.88;19.00;;;4.80;99.90;;;;;;5039577;28;20048;-87
2023/04/15 05:37:09;;;;;;;34.78;20.27;;;4.80;99.90;;;;;;5027416;28;20470;-88
2023/04/15 05:39:35;;;;;;;41.88;21.33;;;5.00;99.90;;;;;;5041273;28;20064;-87
2023/04/15 05:42:01;;;;;;;39.10;21.73;;;5.00;99.90;;;;;;5024538;28;20080;-87
2023/04/15 05:44:26;;;;;;;40.40;22.40;;;5.20;99.90;;;;;;5022948;28;20115;-88
2023/04/15 05:46:52;;;;;;;37.08;21.55;;;5.30;99.90;;;;;;5039553;28;20045;-88
2023/04/15 05:49:18;;;;;;;35.17;20.67;;;5.30;99.90;;;;;;5039259;28;20047;-88
2023/04/15 05:51:43;;;;;;;34.70;20.05;;;5.40;99.90;;;;;;5056158;28;20051;-88
2023/04/15 05:54:09;;;;;;;32.85;19.35;;;5.50;99.90;;;;;;5050522;28;20308;-88
2023/04/15 05:56:35;;;;;;;33.88;18.10;;;5.60;99.90;;;;;;5022565;28;20076;-88
2023/04/15 05:59:04;;;;;;;30.13;17.33;;;5.70;99.90;;;;;;5055272;28;20033;-87
2023/04/15 06:01:29;;;;;;;34.33;19.40;;;5.90;99.90;;;;;;5050676;28;20195;-88
2023/04/15 06:03:55;;;;;;;29.67;17.88;;;5.90;99.90;;;;;;5040476;28;20544;-89
2023/04/15 06:06:21;;;;;;;30.10;17.50;;;5.90;99.90;;;;;;5038493;28;20033;-89
2023/04/15 06:08:47;;;;;;;33.35;18.77;;;6.00;99.90;;;;;;5052324;28;20070;-87
2023/04/15 06:11:12;;;;;;;31.75;17.33;;;6.10;99.90;;;;;;5039836;28;20404;-88
2023/04/15 06:13:38;;;;;;;28.75;17.45;;;6.10;99.90;;;;;;5023636;28;20119;-88
2023/04/15 06:16:04;;;;;;;30.05;16.85;;;6.30;99.90;;;;;;5021758;28;20192;-88
2023/04/15 06:18:30;;;;;;;30.13;17.02;;;6.50;99.90;;;;;;5039216;28;20079;-88
2023/04/15 06:20:56;;;;;;;28.05;16.25;;;6.60;99.90;;;;;;5022406;28;20040;-88
2023/04/15 06:23:21;;;;;;;28.67;17.52;;;6.80;99.90;;;;;;5038582;28;20036;-87
2023/04/15 06:25:47;;;;;;;28.08;16.80;;;7.10;99.90;;;;;;5024500;28;20032;-88
2023/04/15 06:28:13;;;;;;;26.45;15.75;;;7.30;99.90;;;;;;5054612;28;20045;-88
2023/04/15 06:30:38;;;;;;;23.52;15.13;;;7.50;99.90;;;;;;5023379;28;20049;-88
2023/04/15 06:33:05;;;;;;;23.10;15.30;;;7.50;99.90;;;;;;5024070;28;20048;-88
2023/04/15 06:35:31;;;;;;;23.88;14.43;;;7.60;99.90;;;;;;5039371;28;20508;-87
2023/04/15 06:37:56;;;;;;;24.80;14.70;;;7.70;99.90;;;;;;5040278;28;20467;-88
2023/04/15 06:40:22;;;;;;;22.20;14.18;;;7.80;99.90;;;;;;5040462;28;20496;-87
2023/04/15 06:42:48;;;;;;;19.83;12.45;;;7.90;99.90;;;;;;5040734;28;20715;-88
2023/04/15 06:45:13;;;;;;;22.40;12.73;;;8.00;99.90;;;;;;5057241;28;20037;-88
2023/04/15 06:47:39;;;;;;;19.67;12.48;;;8.10;99.90;;;;;;5039861;28;20115;-88
2023/04/15 06:50:05;;;;;;;20.08;13.73;;;8.00;99.90;;;;;;5023553;28;20124;-87
2023/04/15 06:52:31;;;;;;;21.17;12.40;;;8.10;99.90;;;;;;5027082;28;20077;-87
2023/04/15 06:54:58;;;;;;;18.42;11.77;;;8.10;99.90;;;;;;5043815;28;20041;-88
2023/04/15 06:57:24;;;;;;;17.20;11.32;;;8.20;99.90;;;;;;5027986;28;20041;-89
2023/04/15 06:59:53;;;;;;;20.20;11.75;;;8.20;99.90;;;;;;5041291;28;20037;-88
2023/04/15 07:02:20;;;;;;;18.98;11.82;;;8.20;99.90;;;;;;5027277;28;20124;-88
2023/04/15 07:04:45;;;;;;;16.25;11.15;;;8.30;99.90;;;;;;5060210;28;20041;-88
2023/04/15 07:07:11;;;;;;;18.75;11.25;;;8.30;99.90;;;;;;5058850;28;20392;-88
2023/04/15 07:09:37;;;;;;;15.93;10.88;;;8.40;99.90;;;;;;5027694;28;20128;-88
2023/04/15 07:12:03;;;;;;;16.75;11.05;;;8.40;99.90;;;;;;5032722;28;20076;-87
2023/04/15 07:14:32;;;;;;;15.52;9.55;;;8.50;99.90;;;;;;5042249;28;20095;-88
2023/04/15 07:16:57;;;;;;;15.40;9.85;;;8.50;99.90;;;;;;5027516;28;20049;-88
2023/04/15 07:19:23;;;;;;;14.60;10.18;;;8.50;99.90;;;;;;5043008;28;20461;-88
2023/04/15 07:21:49;;;;;;;14.90;9.75;;;8.60;99.90;;;;;;5041008;28;20041;-88
2023/04/15 07:24:17;;;;;;;14.52;9.68;;;8.60;99.90;;;;;;5026146;28;20039;-88
2023/04/15 07:26:43;;;;;;;14.27;9.98;;;8.60;99.90;;;;;;5060730;28;20461;-88
2023/04/15 07:29:12;;;;;;;14.25;8.98;;;8.70;99.90;;;;;;5042129;28;20102;-88
2023/04/15 07:31:39;;;;;;;15.20;9.70;;;8.80;99.90;;;;;;5040349;28;20033;-88
2023/04/15 07:34:06;;;;;;;14.35;9.35;;;8.70;99.90;;;;;;5032290;28;20507;-88
2023/04/15 07:36:31;;;;;;;14.98;9.63;;;8.80;99.90;;;;;;5042387;28;20037;-88
2023/04/15 07:38:57;;;;;;;14.00;9.52;;;8.80;99.90;;;;;;5042549;28;20074;-89
2023/04/15 07:41:23;;;;;;;13.52;8.50;;;8.90;99.90;;;;;;5043318;28;20109;-88
2023/04/15 07:43:49;;;;;;;11.15;7.47;;;8.80;99.90;;;;;;5029149;28;20033;-88
2023/04/15 07:46:15;;;;;;;13.82;8.90;;;9.00;99.90;;;;;;5059202;28;20123;-88
2023/04/15 07:48:41;;;;;;;14.02;8.50;;;9.00;99.90;;;;;;5043342;28;20736;-89
2023/04/15 07:51:07;;;;;;;13.02;7.88;;;9.00;99.90;;;;;;5058799;28;20032;-89
2023/04/15 07:53:33;;;;;;;12.43;7.07;;;9.00;99.90;;;;;;5025670;28;20420;-88
2023/04/15 07:55:58;;;;;;;9.15;6.32;;;9.00;99.90;;;;;;5043735;28;20071;-89
2023/04/15 07:58:24;;;;;;;9.65;7.25;;;9.00;99.90;;;;;;5057995;28;20065;-89
2023/04/15 08:00:51;;;;;;;10.85;7.07;;;9.00;99.90;;;;;;5074449;28;20052;-87
2023/04/15 08:03:16;;;;;;;9.15;6.88;;;9.10;99.90;;;;;;5056551;28;20048;-88
2023/04/15 08:05:42;;;;;;;8.70;6.20;;;9.30;99.90;;;;;;5042485;28;20110;-89
2023/04/15 08:08:07;;;;;;;10.68;6.55;;;9.30;99.90;;;;;;5055479;28;20037;-89
2023/04/15 08:10:33;;;;;;;10.30;6.65;;;9.20;99.90;;;;;;5043059;28;20036;-89
2023/04/15 08:12:59;;;;;;;9.90;6.10;;;9.20;99.90;;;;;;5026362;28;20538;-89
2023/04/15 08:15:26;;;;;;;8.80;6.28;;;9.00;99.90;;;;;;5028593;28;20041;-89
2023/04/15 08:17:51;;;;;;;8.10;6.25;;;9.00;99.90;;;;;;5042434;28;20041;-89
2023/04/15 08:20:17;;;;;;;11.13;7.97;;;8.90;99.90;;;;;;5030133;28;20194;-89
2023/04/15 08:22:43;;;;;;;13.10;7.57;;;8.90;99.90;;;;;;5041399;28;20033;-89
2023/04/15 08:25:09;;;;;;;12.07;8.05;;;8.90;99.90;;;;;;5059483;28;20063;-88
2023/04/15 08:27:35;;;;;;;15.38;8.45;;;9.00;99.90;;;;;;5026087;28;20047;-88
2023/04/15 08:30:01;;;;;;;12.95;8.00;;;9.00;99.90;;;;;;5040884;28;20055;-89
2023/04/15 08:32:26;;;;;;;10.50;7.55;;;8.90;99.90;;;;;;5025839;28;20462;-89
2023/04/15 08:34:53;;;;;;;11.70;8.25;;;8.90;99.90;;;;;;5025660;28;20044;-88
2023/04/15 08:37:18;;;;;;;10.68;6.75;;;9.00;99.90;;;;;;5057164;28;20445;-88
2023/04/15 08:39:45;;;;;;;10.88;7.20;;;9.00;99.90;;;;;;5025329;28;20041;-88
2023/04/15 08:42:30;;;;;;;9.90;5.90;;;8.90;99.90;;;;;;5042548;28;20167;-89
2023/04/15 08:45:02;;;;;;;9.63;7.03;;;8.80;99.90;;;;;;5039180;28;20112;-88
2023/04/15 08:47:33;;;;;;;9.77;6.85;;;8.80;99.90;;;;;;5025562;28;20495;-89
2023/04/15 08:50:03;;;;;;;9.35;6.13;;;8.70;99.90;;;;;;5025671;28;20060;-89
2023/04/15 08:52:30;;;;;;;7.40;6.25;;;8.70;99.90;;;;;;5025731;28;20041;-89
2023/04/15 08:54:59;;;;;;;9.93;5.75;;;9.00;99.90;;;;;;5025485;28;20041;-89
2023/04/15 08:57:28;;;;;;;9.10;5.40;;;8.90;99.90;;;;;;5042193;28;20048;-89
2023/04/15 08:59:56;;;;;;;5.97;4.28;;;8.80;99.90;;;;;;5023564;28;20441;-88
2023/04/15 09:02:26;;;;;;;7.60;4.82;;;8.70;99.90;;;;;;5042289;28;20075;-89
2023/04/15 09:04:52;;;;;;;7.28;4.45;;;8.80;99.90;;;;;;5025081;28;20032;-89
2023/04/15 09:07:20;;;;;;;8.45;4.80;;;8.70;99.90;;;;;;5041074;28;20037;-89
2023/04/15 09:09:47;;;;;;;8.30;4.50;;;8.90;99.90;;;;;;5057365;28;20124;-88
2023/04/15 09:12:13;;;;;;;6.43;3.58;;;8.80;99.90;;;;;;5042521;28;20044;-89
2023/04/15 09:14:44;;;;;;;7.15;3.90;;;9.00;99.90;;;;;;5023185;28;20049;-89
2023/04/15 09:17:10;;;;;;;6.18;3.67;;;9.10;99.90;;;;;;5040919;28;20120;-88
2023/04/15 09:19:36;;;;;;;8.70;2.83;;;9.20;99.90;;;;;;5041866;28;20599;-89
2023/04/15 09:22:02;;;;;;;5.50;3.17;;;9.30;99.90;;;;;;5060619;28;20379;-89
2023/04/15 09:24:39;;;;;;;5.40;2.95;;;9.00;99.90;;;;;;5026816;28;20063;-88
2023/04/15 09:27:06;;;;;;;5.28;3.33;;;9.00;99.90;;;;;;5024734;28;20146;-88
2023/04/15 09:29:31;;;;;;;5.20;3.25;;;8.90;99.90;;;;;;5056488;28;20037;-88
2023/04/15 09:32:12;;;;;;;5.30;3.00;;;8.90;99.90;;;;;;5058525;28;20061;-88
2023/04/15 09:34:38;;;;;;;7.00;3.38;;;9.00;99.90;;;;;;5056944;28;20044;-88
2023/04/15 09:37:04;;;;;;;6.43;3.38;;;9.10;99.90;;;;;;5027935;28;20089;-89
2023/04/15 09:39:52;;;;;;;4.13;2.88;;;9.20;99.90;;;;;;5041237;28;20061;-88
2023/04/15 09:42:25;;;;;;;3.30;2.50;;;9.40;99.90;;;;;;5023504;28;20221;-88
2023/04/15 09:44:51;;;;;;;5.22;2.88;;;9.70;99.90;;;;;;5039530;28;20077;-89
2023/04/15 09:47:30;;;;;;;3.85;2.97;;;9.70;99.90;;;;;;5040415;28;20087;-89
2023/04/15 09:49:57;;;;;;;3.92;2.20;;;9.90;99.90;;;;;;5057297;28;20140;-88
2023/04/15 09:52:23;;;;;;;2.30;2.05;;;9.50;99.90;;;;;;5027194;28;20087;-89
2023/04/15 09:54:54;;;;;;;3.92;2.55;;;9.50;99.90;;;;;;5040604;28;20036;-89
2023/04/15 09:57:20;;;;;;;3.58;2.28;;;9.50;99.90;;;;;;5023726;28;20121;-89
2023/04/15 09:59:47;;;;;;;4.28;2.30;;;9.40;99.90;;;;;;5022453;28;20533;-88
2023/04/15 10:02:13;;;;;;;3.90;2.80;;;9.50;99.90;;;;;;5040908;28;20037;-88
2023/04/15 10:04:40;;;;;;;3.10;2.47;;;9.50;99.90;;;;;;5056360;28;20049;-87
2023/04/15 10:07:08;;;;;;;3.22;2.50;;;9.70;99.90;;;;;;5056559;28;20029;-89
2023/04/15 10:09:35;;;;;;;5.72;2.58;;;9.70;99.90;;;;;;5016286;28;20048;-88
2023/04/15 10:12:03;;;;;;;4.10;2.30;;;9.70;99.90;;;;;;5055324;28;20083;-87
2023/04/15 10:14:32;;;;;;;5.20;2.78;;;9.70;99.90;;;;;;5040644;28;20045;-88
2023/04/15 10:17:01;;;;;;;3.05;2.40;;;9.70;99.90;;;;;;5036403;28;20080;-88
2023/04/15 10:19:30;;;;;;;3.45;2.22;;;9.60;99.90;;;;;;5024068;28;20056;-88
2023/04/15 10:21:57;;;;;;;4.60;2.55;;;9.70;99.90;;;;;;5057938;28;20177;-88
2023/04/15 10:24:24;;;;;;;4.07;2.33;;;9.60;99.90;;;;;;5072117;28;20124;-89
2023/04/15 10:26:51;;;;;;;3.78;1.98;;;9.60;99.90;;;;;;5026644;28;20308;-88
2023/04/15 10:29:17;;;;;;;4.47;2.08;;;9.70;99.90;;;;;;5061320;28;20078;-88
2023/04/15 10:31:43;;;;;;;3.72;2.30;;;9.70;99.90;;;;;;5060881;28;20068;-89
2023/04/15 10:34:10;;;;;;;3.28;2.08;;;9.60;99.90;;;;;;5061195;28;20138;-89
2023/04/15 10:36:36;;;;;;;3.83;2.03;;;9.60;99.90;;;;;;5027132;28;20041;-89
2023/04/15 10:39:22;;;;;;;4.00;2.47;;;9.50;99.90;;;;;;5026143;28;20049;-89
2023/04/15 10:42:08;;;;;;;5.22;2.80;;;9.70;99.90;;;;;;5044162;28;20508;-88
2023/04/15 10:44:37;;;;;;;4.90;2.45;;;9.50;99.90;;;;;;5026195;28;20631;-88
2023/04/15 10:47:13;;;;;;;6.05;2.70;;;9.50;99.90;;;;;;5027826;28;20118;-89
2023/04/15 10:49:46;;;;;;;5.07;2.55;;;9.50;99.90;;;;;;5041890;28;20448;-88
2023/04/15 10:52:15;;;;;;;4.60;2.40;;;9.40;99.90;;;;;;5043677;28;20484;-89
2023/04/15 10:54:41;;;;;;;4.85;2.70;;;9.30;99.90;;;;;;5026619;28;20044;-88
2023/04/15 10:57:13;;;;;;;4.93;2.47;;;9.30;99.90;;;;;;5026913;28;20436;-90
2023/04/15 11:00:03;;;;;;;6.22;2.70;;;9.30;99.90;;;;;;5043133;28;20112;-89
2023/04/15 11:02:46;;;;;;;5.10;3.08;;;9.30;99.90;;;;;;5057259;28;20572;-89
2023/04/15 11:05:13;;;;;;;7.57;3.03;;;9.30;99.90;;;;;;5025604;28;20471;-89
2023/04/15 11:07:47;;;;;;;8.23;2.88;;;9.30;99.90;;;;;;5043452;28;20094;-88
2023/04/15 11:10:16;;;;;;;;;;;9.30;99.90;;;;;;5027022;28;20439;-88
2023/04/15 11:12:42;;;;;;;6.55;3.03;;;9.30;99.90;;;;;;5074478;28;20291;-89
2023/04/15 11:15:26;;;;;;;5.65;3.38;;;9.30;99.90;;;;;;5057475;28;20044;-89
2023/04/15 11:17:52;;;;;;;7.38;3.42;;;9.30;99.90;;;;;;5041560;28;20344;-89
2023/04/15 11:20:18;;;;;;;6.63;2.72;;;9.40;99.90;;;;;;5060083;28;20040;-89
2023/04/15 11:22:51;;;;;;;9.23;3.08;;;9.30;99.90;;;;;;5026654;28;20048;-89
2023/04/15 11:25:31;;;;;;;7.45;3.05;;;9.40;99.90;;;;;;5041633;28;20112;-88
2023/04/15 11:27:58;;;;;;;5.53;3.08;;;9.30;99.90;;;;;;5056107;28;20124;-89
2023/04/15 11:30:29;;;;;;;5.97;2.88;;;9.20;99.90;;;;;;5025197;28;20260;-89
2023/04/15 11:32:58;;;;;;;5.82;3.10;;;9.20;99.90;;;;;;5072208;28;20115;-89
2023/04/15 11:35:24;;;;;;;8.18;3.45;;;9.50;99.90;;;;;;5073525;28;20045;-88
2023/04/15 11:37:50;;;;;;;7.03;2.95;;;9.50;99.90;;;;;;5039175;28;20063;-88
2023/04/15 11:40:21;;;;;;;4.63;2.33;;;10.00;99.90;;;;;;5057964;28;20044;-89
2023/04/15 11:43:11;;;;;;;4.93;2.40;;;10.00;99.90;;;;;;5043546;28;20029;-88
2023/04/15 11:45:51;;;;;;;5.30;2.35;;;10.10;99.90;;;;;;5025096;28;20124;-88
2023/04/15 11:48:18;;;;;;;4.55;2.55;;;9.90;99.90;;;;;;5043976;28;20359;-88
2023/04/15 11:50:44;;;;;;;6.95;2.30;;;9.80;99.90;;;;;;5041712;28;20103;-88
2023/04/15 11:53:12;;;;;;;6.63;2.28;;;9.90;99.90;;;;;;5057979;28;20109;-88
2023/04/15 11:55:49;;;;;;;6.82;2.67;;;9.90;99.90;;;;;;5025873;28;20045;-88
2023/04/15 11:58:18;;;;;;;7.75;2.88;;;9.70;99.90;;;;;;5025476;28;20037;-88
2023/04/15 12:00:52;;;;;;;7.05;2.63;;;9.90;99.90;;;;;;5074781;28;20567;-89
2023/04/15 12:03:22;;;;;;;8.30;3.20;;;9.70;99.90;;;;;;5042316;28;20333;-88
2023/04/15 12:06:11;;;;;;;10.18;2.58;;;9.70;99.90;;;;;;5040734;28;20103;-88
2023/04/15 12:08:57;;;;;;;6.88;2.45;;;9.90;99.90;;;;;;5044376;28;20045;-88
2023/04/15 12:11:26;;;;;;;8.05;2.58;;;10.00;99.90;;;;;;5042959;28;20036;-88
2023/04/15 12:13:58;;;;;;;9.43;2.50;;;9.90;99.90;;;;;;5057516;28;20037;-88
2023/04/15 12:16:24;;;;;;;8.10;2.55;;;9.80;99.90;;;;;;5024991;28;20218;-89
2023/04/15 12:18:51;;;;;;;8.80;3.08;;;9.80;99.90;;;;;;5075216;28;20048;-89
2023/04/15 12:21:22;;;;;;;6.03;2.50;;;9.70;99.90;;;;;;5041237;28;20040;-89
2023/04/15 12:23:50;;;;;;;6.78;2.50;;;9.70;99.90;;;;;;5057672;28;20125;-88
2023/04/15 12:26:17;;;;;;;9.15;2.45;;;9.80;99.90;;;;;;5041608;28;20033;-88
2023/04/15 12:28:44;;;;;;;10.48;3.22;;;9.70;99.90;;;;;;5025167;28;20029;-89
2023/04/15 12:31:13;;;;;;;5.78;2.30;;;9.80;99.90;;;;;;5024836;28;20460;-88
2023/04/15 12:33:39;;;;;;;5.90;2.30;;;9.50;99.90;;;;;;5041425;28;20029;-89
2023/04/15 12:36:08;;;;;;;6.22;2.10;;;9.70;99.90;;;;;;5043810;28;20081;-89
2023/04/15 12:38:34;;;;;;;6.00;2.22;;;9.70;99.90;;;;;;5058577;28;20049;-88
2023/04/15 12:40:59;;;;;;;6.95;2.85;;;9.80;99.90;;;;;;5023495;28;20045;-89
2023/04/15 12:43:26;;;;;;;10.65;2.85;;;9.60;99.90;;;;;;5041517;28;20131;-88
2023/04/15 12:45:53;;;;;;;9.05;2.75;;;9.40;99.90;;;;;;5022060;28;20510;-88